createdAt,value
2017-12-19T00:01:20.904Z,82.50
2017-12-19T00:03:48.030Z,83.00
2017-12-19T00:06:18.302Z,82.90
2017-12-19T00:08:45.679Z,83.10
2017-12-19T00:11:12.955Z,82.50
2017-12-19T00:13:40.243Z,82.40
2017-12-19T00:16:06.764Z,82.40
2017-12-19T00:18:33.447Z,82.30
2017-12-19T00:21:00.823Z,82.20
2017-12-19T00:23:28.200Z,82.50
2017-12-19T00:25:56.290Z,82.30
2017-12-19T00:28:23.680Z,82.20
2017-12-19T00:30:50.252Z,82.30
2017-12-19T00:33:16.891Z,82.60
2017-12-19T00:35:43.447Z,82.50
2017-12-19T00:38:10.725Z,82.40
2017-12-19T00:40:37.996Z,82.20
2017-12-19T00:43:05.375Z,83.30
2017-12-19T00:45:31.932Z,82.50
2017-12-19T00:47:59.206Z,83.10
2017-12-19T00:50:26.418Z,83.40
2017-12-19T00:52:52.938Z,83.40
2017-12-19T00:55:20.312Z,83.40
2017-12-19T00:57:47.603Z,83.60
2017-12-19T01:00:14.071Z,83.60
2017-12-19T01:02:40.591Z,83.30
2017-12-19T01:05:07.984Z,84.10
2017-12-19T01:07:34.466Z,83.90
2017-12-19T01:10:00.950Z,84.30
2017-12-19T01:12:27.480Z,84.10
2017-12-19T01:14:54.110Z,84.20
2017-12-19T01:17:21.384Z,84.30
2017-12-19T01:19:48.619Z,84.40
2017-12-19T01:22:15.125Z,84.40
2017-12-19T01:24:41.674Z,84.40
2017-12-19T01:27:08.949Z,84.40
2017-12-19T01:29:36.223Z,84.20
2017-12-19T01:32:03.497Z,84.40
2017-12-19T01:34:30.772Z,85.00
2017-12-19T01:36:58.049Z,85.20
2017-12-19T01:39:25.321Z,85.10
2017-12-19T01:41:52.599Z,85.10
2017-12-19T01:44:19.065Z,85.00
2017-12-19T01:46:45.609Z,85.50
2017-12-19T01:49:12.987Z,84.90
2017-12-19T01:51:40.363Z,84.70
2017-12-19T01:54:07.638Z,85.10
2017-12-19T01:56:34.912Z,85.10
2017-12-19T01:59:02.180Z,85.20
2017-12-19T02:01:29.356Z,85.40
2017-12-19T02:03:56.634Z,85.70
2017-12-19T02:06:23.130Z,85.70
2017-12-19T02:08:49.649Z,85.60
2017-12-19T02:11:20.707Z,85.70
2017-12-19T02:13:48.566Z,85.90
2017-12-19T02:16:15.632Z,85.90
2017-12-19T02:18:42.336Z,86.10
2017-12-19T02:21:09.085Z,86.00
2017-12-19T02:23:36.542Z,85.90
2017-12-19T02:26:03.384Z,85.90
2017-12-19T02:28:30.213Z,86.70
2017-12-19T02:30:57.067Z,86.10
2017-12-19T02:33:23.809Z,85.90
2017-12-19T02:35:51.263Z,85.70
2017-12-19T02:38:18.208Z,85.60
2017-12-19T02:40:45.050Z,85.80
2017-12-19T02:43:20.800Z,86.20
2017-12-19T02:45:47.538Z,85.90
2017-12-19T02:48:14.360Z,86.10
2017-12-19T02:50:41.121Z,86.40
2017-12-19T02:53:10.624Z,86.50
2017-12-19T02:55:37.273Z,86.40
2017-12-19T02:58:03.849Z,86.60
2017-12-19T03:00:30.490Z,87.20
2017-12-19T03:02:59.852Z,87.20
2017-12-19T03:05:26.472Z,87.10
2017-12-19T03:07:53.851Z,87.20
2017-12-19T03:10:20.465Z,87.20
2017-12-19T03:12:47.103Z,87.30
2017-12-19T03:15:13.831Z,88.10
2017-12-19T03:17:41.137Z,87.30
2017-12-19T03:20:08.212Z,87.30
2017-12-19T03:22:34.784Z,87.30
2017-12-19T03:25:01.402Z,87.10
2017-12-19T03:27:28.058Z,87.10
2017-12-19T03:29:54.716Z,87.10
2017-12-19T03:32:22.094Z,86.40
2017-12-19T03:34:49.383Z,86.50
2017-12-19T03:37:16.031Z,86.50
2017-12-19T03:39:42.689Z,86.60
2017-12-19T03:42:10.066Z,87.10
2017-12-19T03:44:37.941Z,87.50
2017-12-19T03:47:07.376Z,87.70
2017-12-19T03:49:34.754Z,87.60
2017-12-19T03:52:01.313Z,87.50
2017-12-19T03:54:28.601Z,87.30
2017-12-19T03:56:55.206Z,87.30
2017-12-19T03:59:21.798Z,87.30
2017-12-19T04:01:49.184Z,87.60
2017-12-19T04:04:15.842Z,87.60
2017-12-19T04:06:43.322Z,87.90
2017-12-19T04:09:11.234Z,88.10
2017-12-19T04:11:37.802Z,88.00
2017-12-19T04:14:04.404Z,88.10
2017-12-19T04:16:31.607Z,87.60
2017-12-19T04:18:58.358Z,87.50
2017-12-19T04:21:25.743Z,87.60
2017-12-19T04:23:53.119Z,87.50
2017-12-19T04:26:20.426Z,87.80
2017-12-19T04:28:47.054Z,87.80
2017-12-19T04:31:14.430Z,87.90
2017-12-19T04:33:41.806Z,88.10
2017-12-19T04:36:09.095Z,88.10
2017-12-19T04:38:35.741Z,88.10
2017-12-19T04:41:03.119Z,87.60
2017-12-19T04:43:30.603Z,87.60
2017-12-19T04:45:57.150Z,87.60
2017-12-19T04:48:24.532Z,88.10
2017-12-19T04:50:51.909Z,87.90
2017-12-19T04:53:18.576Z,87.80
2017-12-19T04:55:45.335Z,87.70
2017-12-19T04:58:11.992Z,87.50
2017-12-19T05:00:38.659Z,87.50
2017-12-19T05:03:05.420Z,87.60
2017-12-19T05:05:32.798Z,87.70
2017-12-19T05:07:59.339Z,87.70
2017-12-19T05:10:26.733Z,87.60
2017-12-19T05:12:54.018Z,87.80
2017-12-19T05:15:20.642Z,87.80
2017-12-19T05:17:47.223Z,87.60
2017-12-19T05:20:14.603Z,88.00
2017-12-19T05:22:41.900Z,88.00
2017-12-19T05:25:08.461Z,88.00
2017-12-19T05:27:39.185Z,88.20
2017-12-19T05:30:05.845Z,88.30
2017-12-19T05:32:33.116Z,88.60
2017-12-19T05:35:00.496Z,88.50
2017-12-19T05:37:27.843Z,88.40
2017-12-19T05:39:54.372Z,88.40
2017-12-19T05:42:20.991Z,88.70
2017-12-19T05:44:48.470Z,88.90
2017-12-19T05:47:22.987Z,88.70
2017-12-19T05:49:50.274Z,88.90
2017-12-19T05:52:17.655Z,88.70
2017-12-19T05:54:45.136Z,89.30
2017-12-19T05:57:22.464Z,89.30
2017-12-19T05:59:49.092Z,90.00
2017-12-19T06:02:16.394Z,89.10
2017-12-19T06:04:43.028Z,89.00
2017-12-19T06:10:04.363Z,88.90
2017-12-19T06:12:31.768Z,88.70
2017-12-19T06:14:58.409Z,88.70
2017-12-19T06:17:25.688Z,88.50
2017-12-19T06:19:52.346Z,88.50
2017-12-19T06:22:21.974Z,88.60
2017-12-19T06:24:49.350Z,88.70
2017-12-19T06:27:25.219Z,88.70
2017-12-19T06:29:51.877Z,88.70
2017-12-19T06:32:19.971Z,88.70
2017-12-19T06:34:46.558Z,88.70
2017-12-19T06:37:20.253Z,88.60
2017-12-19T06:39:46.801Z,88.70
2017-12-19T06:42:14.098Z,88.50
2017-12-19T06:44:40.675Z,88.40
2017-12-19T06:47:07.244Z,88.30
2017-12-19T06:49:33.923Z,88.10
2017-12-19T06:52:00.528Z,88.10
2017-12-19T06:54:27.091Z,88.00
2017-12-19T06:56:53.739Z,88.10
2017-12-19T06:59:21.124Z,88.00
2017-12-19T07:01:47.979Z,88.00
2017-12-19T07:04:14.597Z,87.70
2017-12-19T07:06:41.301Z,87.70
2017-12-19T07:09:09.127Z,87.80
2017-12-19T07:11:36.054Z,87.80
2017-12-19T07:14:02.675Z,88.10
2017-12-19T07:16:30.398Z,87.40
2017-12-19T07:18:57.058Z,87.30
2017-12-19T07:21:24.396Z,87.60
2017-12-19T07:23:50.942Z,87.50
2017-12-19T07:26:17.552Z,87.70
2017-12-19T07:28:44.213Z,87.90
2017-12-19T07:31:11.588Z,88.30
2017-12-19T07:33:38.967Z,88.30
2017-12-19T07:36:05.628Z,88.30
2017-12-19T07:38:33.039Z,87.90
2017-12-19T07:40:59.666Z,87.90
2017-12-19T07:43:26.326Z,88.10
2017-12-19T07:45:52.896Z,88.30
2017-12-19T07:48:19.474Z,88.80
2017-12-19T07:50:46.004Z,88.40
2017-12-19T07:53:12.662Z,88.20
2017-12-19T07:55:40.040Z,88.20
2017-12-19T07:58:07.417Z,87.80
2017-12-19T08:00:34.076Z,87.80
2017-12-19T08:03:01.297Z,88.40
2017-12-19T08:05:28.013Z,88.40
2017-12-19T08:07:55.390Z,90.00
2017-12-19T08:10:21.907Z,89.90
2017-12-19T08:12:48.607Z,89.10
2017-12-19T08:15:15.983Z,88.40
2017-12-19T08:17:43.464Z,88.20
2017-12-19T08:20:10.394Z,88.20
2017-12-19T08:22:36.988Z,88.20
2017-12-19T08:25:03.493Z,88.20
2017-12-19T08:27:30.048Z,88.00
2017-12-19T08:29:56.544Z,87.50
2017-12-19T08:32:23.077Z,87.40
2017-12-19T08:34:49.783Z,87.60
2017-12-19T08:37:16.824Z,87.40
2017-12-19T08:39:44.846Z,87.60
2017-12-19T08:42:11.811Z,87.60
2017-12-19T08:44:38.348Z,87.40
2017-12-19T08:47:05.130Z,87.50
2017-12-19T08:49:31.774Z,87.70
2017-12-19T08:51:59.067Z,87.60
2017-12-19T08:54:25.562Z,87.60
2017-12-19T08:56:52.184Z,87.60
2017-12-19T08:59:19.895Z,87.50
2017-12-19T09:01:46.430Z,87.60
2017-12-19T09:04:12.983Z,87.60
2017-12-19T09:06:39.542Z,87.80
2017-12-19T09:09:06.778Z,88.00
2017-12-19T09:11:35.011Z,87.80
2017-12-19T09:14:01.470Z,87.80
2017-12-19T09:16:28.075Z,88.40
2017-12-19T09:18:54.529Z,88.30
2017-12-19T09:21:21.347Z,88.30
2017-12-19T09:23:48.613Z,88.40
2017-12-19T09:26:15.905Z,88.30
2017-12-19T09:28:42.577Z,88.20
2017-12-19T09:31:09.119Z,88.40
2017-12-19T09:33:35.781Z,88.80
2017-12-19T09:36:02.440Z,88.90
2017-12-19T09:38:29.199Z,88.80
2017-12-19T09:40:55.761Z,88.70
2017-12-19T09:43:22.318Z,88.50
2017-12-19T09:45:49.697Z,89.40
2017-12-19T09:48:16.207Z,89.40
2017-12-19T09:50:42.833Z,89.60
2017-12-19T09:53:09.472Z,89.60
2017-12-19T09:55:36.746Z,89.50
2017-12-19T09:58:04.539Z,89.20
2017-12-19T10:00:31.405Z,89.20
2017-12-19T10:02:58.055Z,89.30
2017-12-19T10:05:24.691Z,89.30
2017-12-19T10:07:51.381Z,89.40
2017-12-19T10:10:17.886Z,89.40
2017-12-19T10:12:44.600Z,89.00
2017-12-19T10:15:11.259Z,88.80
2017-12-19T10:17:37.792Z,89.20
2017-12-19T10:20:04.375Z,89.20
2017-12-19T10:22:32.265Z,89.40
2017-12-19T10:24:59.131Z,89.30
2017-12-19T10:27:25.994Z,89.10
2017-12-19T10:29:52.757Z,89.20
2017-12-19T10:32:19.519Z,89.10
2017-12-19T10:34:47.000Z,89.30
2017-12-19T10:37:13.664Z,89.30
2017-12-19T10:39:40.320Z,89.50
2017-12-19T10:42:07.594Z,89.70
2017-12-19T10:44:34.931Z,90.00
2017-12-19T10:47:01.531Z,90.00
2017-12-19T10:49:29.463Z,90.10
2017-12-19T10:51:56.035Z,90.10
2017-12-19T10:54:22.637Z,90.30
2017-12-19T10:56:49.200Z,90.50
2017-12-19T10:59:15.756Z,90.60
2017-12-19T11:01:43.234Z,90.40
2017-12-19T11:04:10.233Z,90.40
2017-12-19T11:06:36.873Z,90.40
2017-12-19T11:09:03.967Z,90.30
2017-12-19T11:11:30.961Z,90.20
2017-12-19T11:13:58.109Z,90.10
2017-12-19T11:16:24.965Z,90.00
2017-12-19T11:18:51.884Z,90.10
2017-12-19T11:21:19.046Z,90.10
2017-12-19T11:23:46.502Z,90.10
2017-12-19T11:26:15.548Z,90.20
2017-12-19T11:28:43.048Z,90.10
2017-12-19T11:31:11.040Z,90.00
2017-12-19T11:33:37.905Z,90.00
2017-12-19T11:36:04.669Z,90.00
2017-12-19T11:38:31.431Z,90.00
2017-12-19T11:40:59.404Z,90.00
2017-12-19T11:43:27.308Z,89.90
2017-12-19T11:45:54.687Z,90.00
2017-12-19T11:48:22.604Z,89.90
2017-12-19T11:50:49.443Z,89.90
2017-12-19T11:53:16.001Z,89.90
2017-12-19T11:55:42.671Z,90.00
2017-12-19T11:58:09.933Z,90.00
2017-12-19T12:00:36.908Z,90.10
2017-12-19T12:03:03.626Z,90.10
2017-12-19T12:05:30.288Z,90.20
2017-12-19T12:07:57.743Z,90.00
2017-12-19T12:10:24.586Z,90.20
2017-12-19T12:12:51.617Z,90.30
2017-12-19T12:15:18.576Z,90.20
2017-12-19T12:17:45.420Z,90.30
2017-12-19T12:20:12.266Z,90.30
2017-12-19T12:22:39.093Z,90.30
2017-12-19T12:25:06.350Z,90.50
2017-12-19T12:27:34.837Z,90.50
2017-12-19T12:30:01.678Z,90.70
2017-12-19T12:32:28.416Z,90.70
2017-12-19T12:34:55.156Z,90.90
2017-12-19T12:37:22.815Z,91.20
2017-12-19T12:39:49.967Z,91.20
2017-12-19T12:42:16.703Z,91.30
2017-12-19T12:44:43.627Z,91.40
2017-12-19T12:47:11.002Z,91.40
2017-12-19T12:49:38.564Z,91.40
2017-12-19T12:52:05.402Z,91.30
2017-12-19T12:54:32.039Z,91.40
2017-12-19T12:56:58.677Z,91.50
2017-12-19T12:59:26.121Z,91.90
2017-12-19T13:01:52.873Z,91.90
2017-12-19T13:04:19.713Z,91.90
2017-12-19T13:06:46.456Z,91.90
2017-12-19T13:09:13.909Z,92.00
2017-12-19T13:11:41.058Z,92.00
2017-12-19T13:14:07.902Z,92.10
2017-12-19T13:16:34.742Z,92.20
2017-12-19T13:19:01.683Z,92.20
2017-12-19T13:21:28.636Z,92.30
2017-12-19T13:23:55.473Z,92.30
2017-12-19T13:26:22.111Z,92.40
2017-12-19T13:28:48.750Z,92.40
2017-12-19T13:31:15.692Z,92.30
2017-12-19T13:33:42.522Z,92.30
2017-12-19T13:36:09.272Z,92.20
2017-12-19T13:38:36.096Z,92.40
2017-12-19T13:41:02.840Z,92.50
2017-12-19T13:43:29.593Z,92.80
2017-12-19T13:45:56.333Z,92.90
2017-12-19T13:48:23.988Z,93.10
2017-12-19T13:50:51.348Z,93.20
2017-12-19T13:53:18.894Z,93.40
2017-12-19T13:55:45.747Z,93.30
2017-12-19T13:58:12.899Z,93.30
2017-12-19T14:00:39.745Z,93.40
2017-12-19T14:03:07.298Z,93.90
2017-12-19T14:05:34.139Z,93.90
2017-12-19T14:08:00.780Z,94.10
2017-12-19T14:10:27.420Z,94.10
2017-12-19T14:12:54.132Z,94.10
2017-12-19T14:15:20.995Z,94.20
2017-12-19T14:17:48.860Z,94.30
2017-12-19T14:20:15.601Z,94.30
2017-12-19T14:22:42.483Z,94.10
2017-12-19T14:25:09.181Z,94.00
2017-12-19T14:27:36.023Z,94.10
2017-12-19T14:30:03.890Z,94.20
2017-12-19T14:32:30.424Z,94.20
2017-12-19T14:34:57.982Z,94.10
2017-12-19T14:37:24.724Z,94.10
2017-12-19T14:39:51.562Z,94.30
2017-12-19T14:42:18.302Z,94.30
2017-12-19T14:44:45.043Z,94.30
2017-12-19T14:47:12.402Z,94.60
2017-12-19T14:49:39.134Z,94.50
2017-12-19T14:52:05.772Z,94.60
2017-12-19T14:54:32.616Z,94.60
2017-12-19T14:56:59.558Z,94.70
2017-12-19T14:59:26.504Z,94.70
2017-12-19T15:01:53.242Z,94.80
2017-12-19T15:04:20.013Z,95.00
2017-12-19T15:06:46.617Z,95.10
2017-12-19T15:09:13.450Z,95.20
2017-12-19T15:11:41.022Z,95.50
2017-12-19T15:14:07.861Z,95.50
2017-12-19T15:16:34.702Z,95.60
2017-12-19T15:19:01.647Z,95.60
2017-12-19T15:21:28.590Z,95.50
2017-12-19T15:23:55.126Z,95.70
2017-12-19T15:26:21.973Z,95.70
2017-12-19T15:28:48.809Z,95.80
2017-12-19T15:31:15.753Z,96.30
2017-12-19T15:33:43.107Z,95.90
2017-12-19T15:36:09.849Z,95.90
2017-12-19T15:38:36.692Z,95.80
2017-12-19T15:41:03.635Z,95.90
2017-12-19T15:43:31.609Z,96.10
2017-12-19T15:45:59.472Z,96.00
2017-12-19T15:48:27.027Z,96.00
2017-12-19T15:50:54.474Z,96.00
2017-12-19T15:53:21.427Z,95.90
2017-12-19T15:55:48.267Z,95.80
2017-12-19T15:58:14.930Z,95.70
2017-12-19T16:00:41.748Z,95.70
2017-12-19T16:03:08.899Z,95.70
2017-12-19T16:05:35.638Z,95.80
2017-12-19T16:08:04.012Z,95.70
2017-12-19T16:10:30.753Z,95.70
2017-12-19T16:12:59.029Z,95.90
2017-12-19T16:15:25.871Z,95.80
2017-12-19T16:17:52.714Z,95.90
2017-12-19T16:20:19.639Z,96.00
2017-12-19T16:22:46.498Z,96.10
2017-12-19T16:25:13.552Z,96.10
2017-12-19T16:27:40.328Z,96.10
2017-12-19T16:30:07.423Z,96.10
2017-12-19T16:32:34.070Z,96.30
2017-12-19T16:35:01.117Z,96.20
2017-12-19T16:37:27.957Z,96.20
2017-12-19T16:39:54.808Z,96.30
2017-12-19T16:42:21.441Z,96.30
2017-12-19T16:44:49.013Z,96.50
2017-12-19T16:47:16.351Z,96.50
2017-12-19T16:49:43.088Z,96.50
2017-12-19T16:52:09.912Z,96.50
2017-12-19T16:54:36.567Z,96.50
2017-12-19T16:57:03.409Z,96.50
2017-12-19T16:59:31.686Z,96.50
2017-12-19T17:01:58.527Z,96.50
2017-12-19T17:04:25.362Z,96.60
2017-12-19T17:06:52.143Z,96.70
2017-12-19T17:09:19.052Z,96.90
2017-12-19T17:11:45.794Z,97.00
2017-12-19T17:14:12.432Z,97.20
2017-12-19T17:16:39.987Z,97.00
2017-12-19T17:19:17.581Z,97.00
2017-12-19T17:21:44.526Z,97.10
2017-12-19T17:24:11.674Z,97.10
2017-12-19T17:29:39.562Z,97.10
2017-12-19T17:32:06.392Z,97.20
2017-12-19T17:34:33.143Z,97.10
2017-12-19T17:36:59.984Z,97.10
2017-12-19T17:39:26.703Z,97.20
2017-12-19T17:41:53.443Z,97.30
2017-12-19T17:44:20.203Z,97.30
2017-12-19T17:46:47.351Z,97.30
2017-12-19T17:49:14.706Z,97.20
2017-12-19T17:51:41.547Z,97.20
2017-12-19T17:54:08.280Z,97.30
2017-12-19T17:56:35.119Z,97.40
2017-12-19T17:59:02.281Z,97.40
2017-12-19T18:01:28.915Z,97.30
2017-12-19T18:03:56.257Z,97.00
2017-12-19T18:06:23.012Z,97.10
2017-12-19T18:08:50.568Z,97.10
2017-12-19T18:11:17.511Z,97.10
2017-12-19T18:13:45.698Z,97.30
2017-12-19T18:16:15.883Z,97.30
2017-12-19T18:18:42.644Z,97.40
2017-12-19T18:21:09.259Z,97.40
2017-12-19T18:23:35.919Z,97.40
2017-12-19T18:26:02.747Z,97.40
2017-12-19T18:28:29.807Z,97.40
2017-12-19T18:30:56.751Z,97.50
2017-12-19T18:33:23.417Z,97.50
2017-12-19T18:35:50.105Z,97.50
2017-12-19T18:38:16.754Z,97.50
2017-12-19T18:40:43.510Z,97.60
2017-12-19T18:43:13.724Z,97.90
2017-12-19T18:45:41.078Z,97.80
2017-12-19T18:48:07.811Z,97.80
2017-12-19T18:50:34.661Z,97.90
2017-12-19T18:53:01.607Z,97.90
2017-12-19T18:55:29.574Z,97.90
2017-12-19T18:57:56.394Z,97.80
2017-12-19T19:00:23.154Z,97.80
2017-12-19T19:02:51.124Z,97.90
2017-12-19T19:05:18.374Z,98.00
2017-12-19T19:07:45.628Z,98.30
2017-12-19T19:10:12.561Z,97.90
2017-12-19T19:12:39.722Z,97.80
2017-12-19T19:15:09.428Z,97.80
2017-12-19T19:17:36.884Z,97.90
2017-12-19T19:20:03.806Z,97.90
2017-12-19T19:25:23.421Z,97.90
2017-12-19T19:27:50.980Z,97.90
2017-12-19T19:30:24.680Z,97.90
2017-12-19T19:32:51.355Z,97.70
2017-12-19T19:35:18.868Z,97.70
2017-12-19T19:37:56.882Z,97.70
2017-12-19T19:40:24.234Z,97.90
2017-12-19T19:42:51.076Z,97.80
2017-12-19T19:45:31.024Z,97.90
2017-12-19T19:47:57.772Z,97.70
2017-12-19T19:50:24.473Z,97.80
2017-12-19T19:52:51.039Z,97.90
2017-12-19T19:55:39.684Z,97.70
2017-12-19T19:58:06.534Z,97.70
2017-12-19T20:00:33.473Z,97.70
2017-12-19T20:03:01.039Z,97.70
2017-12-19T20:05:28.792Z,97.70
2017-12-19T20:07:56.258Z,97.70
2017-12-19T20:10:23.816Z,97.60
2017-12-19T20:12:50.555Z,97.60
2017-12-19T20:18:10.946Z,97.60
2017-12-19T20:20:37.699Z,97.70
2017-12-19T20:23:04.854Z,97.80
2017-12-19T20:25:31.899Z,97.70
2017-12-19T20:28:16.766Z,97.60
2017-12-19T20:30:44.410Z,97.50
2017-12-19T20:33:12.278Z,97.40
2017-12-19T20:35:59.822Z,97.40
2017-12-19T20:38:27.278Z,97.40
2017-12-19T20:40:55.241Z,97.30
2017-12-19T20:43:34.371Z,97.40
2017-12-19T20:46:01.119Z,97.40
2017-12-19T20:48:28.547Z,97.50
2017-12-19T20:51:07.836Z,97.40
2017-12-19T20:53:35.974Z,97.40
2017-12-19T20:56:03.600Z,97.50
2017-12-19T20:58:31.299Z,97.50
2017-12-19T21:01:07.358Z,97.40
2017-12-19T21:03:34.184Z,97.40
2017-12-19T21:06:01.858Z,97.30
2017-12-19T21:08:30.337Z,97.40
2017-12-19T21:13:51.365Z,97.40
2017-12-19T21:16:18.818Z,97.50
2017-12-19T21:18:45.875Z,97.40
2017-12-19T21:21:12.913Z,97.40
2017-12-19T21:23:48.459Z,97.50
2017-12-19T21:26:16.221Z,97.40
2017-12-19T21:28:43.171Z,97.40
2017-12-19T21:31:10.314Z,97.40
2017-12-19T21:33:51.207Z,97.50
2017-12-19T21:36:18.232Z,97.40
2017-12-19T21:38:45.996Z,97.40
2017-12-19T21:41:13.043Z,97.40
2017-12-19T21:43:43.574Z,97.40
2017-12-19T21:46:11.027Z,97.40
2017-12-19T21:48:37.971Z,97.50
2017-12-19T21:51:05.226Z,97.70
2017-12-19T21:53:38.828Z,97.60
2017-12-19T21:56:05.550Z,97.60
2017-12-19T21:58:32.510Z,97.60
2017-12-19T22:00:59.349Z,97.70
2017-12-19T22:03:26.067Z,97.60
2017-12-19T22:05:52.811Z,97.70
2017-12-19T22:08:20.491Z,97.60
2017-12-19T22:13:45.742Z,97.80
2017-12-19T22:16:13.578Z,97.70
2017-12-19T22:18:41.549Z,97.70
2017-12-19T22:21:23.939Z,97.80
2017-12-19T22:23:50.876Z,97.80
2017-12-19T22:26:17.538Z,97.90
2017-12-19T22:28:46.221Z,98.00
2017-12-19T22:31:25.453Z,98.00
2017-12-19T22:33:53.011Z,98.00
2017-12-19T22:36:19.546Z,98.00
2017-12-19T22:38:46.197Z,98.00
2017-12-19T22:41:13.028Z,97.90
2017-12-19T22:43:39.590Z,97.90
2017-12-19T22:46:07.732Z,97.80
2017-12-19T22:48:34.988Z,97.90
2017-12-19T22:51:01.621Z,97.90
2017-12-19T22:53:28.259Z,97.90
2017-12-19T22:55:56.022Z,97.90
2017-12-19T22:58:22.558Z,98.00
2017-12-19T23:00:49.706Z,98.00
2017-12-19T23:03:24.126Z,98.00
2017-12-19T23:05:50.968Z,97.90
2017-12-19T23:08:17.587Z,98.10
2017-12-19T23:10:45.061Z,98.00
2017-12-19T23:13:12.415Z,98.00
2017-12-19T23:15:39.156Z,98.00
2017-12-19T23:18:05.899Z,98.10
2017-12-19T23:20:51.892Z,98.10
2017-12-19T23:23:18.624Z,98.30
2017-12-19T23:25:45.566Z,98.40
2017-12-19T23:28:12.512Z,98.40
2017-12-19T23:30:48.161Z,98.40
2017-12-19T23:33:14.900Z,98.50
2017-12-19T23:35:42.459Z,98.50
2017-12-19T23:38:23.231Z,98.20
2017-12-19T23:40:49.967Z,98.20
2017-12-19T23:43:16.911Z,98.10
2017-12-19T23:45:48.873Z,98.00
2017-12-19T23:48:15.510Z,98.00
2017-12-19T23:50:42.243Z,98.00
2017-12-19T23:53:16.157Z,97.90
2017-12-19T23:55:42.987Z,98.00
2017-12-19T23:58:09.744Z,98.00
